Página principal
METAR-TAF:

METAR-TAF

Aeroportos :

Luganville, Espírito Santo, Vanuatu

latitude: 15-31S, longitude: 167-13E, altura: 41 m

Observação actual do tempo

O boletim foi feito há 49 minutos, às 04:00 UTC
Vento 6 kt de es-sudeste
Temperatura 28°C
Humidade 66%
Pressão 1007 hPa
Visibilidade 10 km ou mais
Nuvens dispersasa uma altura de 1800 ft
Nuvens fragmentadasa uma altura de 4000 ft

METAR: NVSS 140400Z 12006KT 9999 SCT018 BKN040 28/21 Q1007

Hora: 15:49 (04:49 UTC)

Previsão

O boletim foi feito há 6 horas e 29 minutos, às 22:20 UTC
Previsão válida de 14 às 00 UTC a 14 às 24 UTC
Vento 6 kt de es-sudeste
Visibilidade 10 km ou mais
Nuvens dispersasa uma altura de 2000 ft

TAF: NVSS 132220Z 1400/1424 12006KT 9999 SCT020

Observações e previsões do tempo de mais de 4000 aeroportos (mensagens METAR e TAF).

As estações disponíveis são os pontos amarelos e vermelhos sobre o mapa.

Mova o rato sobre o mapa para ver o nome da estação.

Depois clique no ponto para visualizar as observações e previsões meteorológicas.

Para alterar o mapa : clique nos botões verdes com uma cruz preta para aumentar o zoom; no botão verde com uma pitada de zoom; ou nas setas verdes para mapas adjacentes.


METAR-TAF: